Time;durP1;ratioP1;P1;durP2;ratioP2;P2;SDS_P1;SDS_P2;PMS_P1;PMS_P2;Temp;Humidity;BMP_temperature;BMP_pressure;BME280_temperature;BME280_humidity;BME280_pressure;Samples;Min_cycle;Max_cycle;Signal;HPM_P1;HPM_P2
2023/04/05 00:01:14;;;;;;;19.35;11.43;;;77.70;2227.20;;;;;;5031079;28;20231;-80
2023/04/05 00:03:41;;;;;;;18.90;10.80;;;77.70;2227.20;;;;;;5014592;28;20038;-79
2023/04/05 00:06:07;;;;;;;17.98;11.65;;;77.70;2227.20;;;;;;5024775;28;20026;-78
2023/04/05 00:08:33;;;;;;;22.58;13.90;;;102.40;2227.20;;;;;;5021774;28;20123;-79
2023/04/05 00:10:59;;;;;;;15.52;9.93;;;77.70;2227.20;;;;;;5031710;28;20092;-80
2023/04/05 00:13:24;;;;;;;23.52;12.68;;;77.70;2227.20;;;;;;5019047;28;20465;-78
2023/04/05 00:15:50;;;;;;;32.22;16.63;;;102.40;2227.20;;;;;;5027744;28;20021;-78
2023/04/05 00:18:22;;;;;;;26.25;13.18;;;102.50;2227.20;;;;;;5015276;28;20076;-78
2023/04/05 00:20:51;;;;;;;18.60;10.80;;;102.50;2227.20;;;;;;5030518;28;20033;-81
2023/04/05 00:23:17;;;;;;;18.73;11.48;;;102.50;2227.20;;;;;;5018320;28;20029;-79
2023/04/05 00:25:44;;;;;;;17.67;10.80;;;102.50;2227.20;;;;;;5028335;28;20025;-81
2023/04/05 00:28:11;;;;;;;14.50;8.32;;;102.50;2227.20;;;;;;5025292;28;20056;-82
2023/04/05 00:30:37;;;;;;;14.52;8.77;;;102.40;2227.20;;;;;;5020923;28;20026;-80
2023/04/05 00:33:02;;;;;;;13.77;8.55;;;102.40;2227.20;;;;;;5030309;28;20037;-79
2023/04/05 00:35:29;;;;;;;12.48;8.00;;;102.40;2227.20;;;;;;5019346;28;20108;-79
2023/04/05 00:37:55;;;;;;;12.50;8.10;;;77.70;2227.20;;;;;;5023764;28;20049;-79
2023/04/05 00:40:22;;;;;;;12.23;8.02;;;77.70;2227.20;;;;;;5014696;28;20113;-80
2023/04/05 00:42:48;;;;;;;17.20;10.57;;;102.70;2227.20;;;;;;5029642;28;20174;-81
2023/04/05 00:45:14;;;;;;;18.75;12.27;;;77.60;2227.20;;;;;;5019539;28;20474;-80
2023/04/05 00:47:41;;;;;;;20.95;11.88;;;77.60;2227.20;;;;;;5028817;28;20018;-78
2023/04/05 00:50:08;;;;;;;33.17;19.25;;;77.70;2227.20;;;;;;5024114;28;20025;-81
2023/04/05 00:52:36;;;;;;;37.90;21.77;;;77.70;2227.20;;;;;;5034375;28;20052;-80
2023/04/05 00:55:04;;;;;;;32.50;19.75;;;77.70;2227.20;;;;;;5033160;28;20033;-79
2023/04/05 00:57:33;;;;;;;20.50;13.20;;;102.40;2227.20;;;;;;5019138;28;20021;-79
2023/04/05 01:00:00;;;;;;;17.33;11.88;;;77.70;2227.20;;;;;;5026009;28;20052;-80
2023/04/05 01:02:32;;;;;;;14.00;9.73;;;77.60;2227.20;;;;;;5026864;28;20026;-81
2023/04/05 01:05:02;;;;;;;12.30;8.88;;;77.60;2227.20;;;;;;5018144;28;20026;-81
2023/04/05 01:07:41;;;;;;;14.95;11.00;;;77.70;2227.20;;;;;;5029411;28;20036;-81
2023/04/05 01:10:12;;;;;;;17.75;11.63;;;77.70;2227.20;;;;;;5017860;28;20473;-81
2023/04/05 01:12:38;;;;;;;23.30;14.98;;;77.70;2227.20;;;;;;5016366;28;20030;-81
2023/04/05 01:15:04;;;;;;;22.85;15.20;;;77.60;2227.20;;;;;;5016129;28;20076;-81
2023/04/05 01:17:35;;;;;;;23.25;14.05;;;77.60;2227.20;;;;;;5014702;28;20026;-82
2023/04/05 01:20:09;;;;;;;18.70;12.30;;;77.60;2227.20;;;;;;5014840;28;20030;-81
2023/04/05 01:23:15;;;;;;;14.13;9.50;;;77.60;2227.20;;;;;;5014539;28;20030;-80
2023/04/05 01:25:51;;;;;;;13.30;9.25;;;77.60;2227.20;;;;;;5015190;28;20038;-82
2023/04/05 01:29:14;;;;;;;13.27;9.20;;;77.70;2227.20;;;;;;5014720;28;20173;-79
2023/04/05 01:31:56;;;;;;;14.15;9.77;;;77.60;2227.20;;;;;;4939495;29;20032;-81
2023/04/05 01:34:32;;;;;;;16.00;9.95;;;77.60;2227.20;;;;;;4939881;29;20062;-80
2023/04/05 01:37:06;;;;;;;14.48;10.30;;;77.50;2227.20;;;;;;5001688;28;20405;-80
2023/04/05 01:39:34;;;;;;;13.55;9.70;;;77.60;2227.20;;;;;;5034752;28;20026;-79
2023/04/05 01:42:01;;;;;;;13.40;9.32;;;77.50;2227.20;;;;;;5035133;28;20060;-81
2023/04/05 01:44:28;;;;;;;19.98;12.52;;;77.50;2227.20;;;;;;5035117;28;20546;-81
2023/04/05 01:46:54;;;;;;;20.52;12.80;;;77.50;2227.20;;;;;;5036683;28;20035;-80
2023/04/05 01:49:21;;;;;;;15.88;11.32;;;77.50;2227.20;;;;;;5036077;28;20519;-80
2023/04/05 01:51:47;;;;;;;12.32;9.32;;;77.20;2227.20;;;;;;5010135;28;20034;-80
2023/04/05 01:54:13;;;;;;;16.92;11.18;;;77.50;2227.20;;;;;;4995104;28;20049;-81
2023/04/05 01:56:39;;;;;;;15.93;10.68;;;77.60;2227.20;;;;;;4995544;28;20458;-80
2023/04/05 01:59:04;;;;;;;17.15;10.38;;;77.50;2227.20;;;;;;4995453;28;20027;-80
2023/04/05 02:01:30;;;;;;;12.82;9.43;;;77.50;2227.20;;;;;;4997859;28;20080;-80
2023/04/05 02:03:56;;;;;;;11.43;9.20;;;77.40;2227.20;;;;;;4998436;28;20050;-82
2023/04/05 02:06:22;;;;;;;13.93;9.80;;;77.50;2227.20;;;;;;4996195;28;20553;-80
2023/04/05 02:08:48;;;;;;;15.48;11.00;;;77.50;2227.20;;;;;;4995922;28;20019;-80
2023/04/05 02:11:14;;;;;;;12.70;8.73;;;77.40;2227.20;;;;;;4996025;28;20030;-80
2023/04/05 02:13:40;;;;;;;15.35;10.52;;;77.40;2227.20;;;;;;4995202;28;20382;-80
2023/04/05 02:16:06;;;;;;;15.40;10.48;;;77.40;2227.20;;;;;;4994755;28;20026;-80
2023/04/05 02:18:32;;;;;;;15.52;10.77;;;77.40;2227.20;;;;;;4994891;28;20113;-80
2023/04/05 02:21:03;;;;;;;13.77;10.38;;;77.40;2227.20;;;;;;4994543;28;20034;-81
2023/04/05 02:23:30;;;;;;;15.43;10.35;;;77.40;2227.20;;;;;;4995029;28;20027;-81
2023/04/05 02:25:56;;;;;;;11.98;8.73;;;77.40;2227.20;;;;;;4996481;28;20116;-80
2023/04/05 02:28:23;;;;;;;13.45;8.80;;;77.10;2227.20;;;;;;4997347;28;20034;-80
2023/04/05 02:30:49;;;;;;;13.40;9.32;;;77.40;2227.20;;;;;;4998148;28;20433;-81
2023/04/05 02:33:15;;;;;;;13.07;9.32;;;77.30;2227.20;;;;;;4999136;28;20085;-79
2023/04/05 02:35:41;;;;;;;20.30;15.70;;;77.40;2227.20;;;;;;4997572;28;20066;-81
2023/04/05 02:38:12;;;;;;;60.47;37.90;;;77.40;2227.20;;;;;;5027882;28;20049;-80
2023/04/05 02:40:40;;;;;;;21.02;14.70;;;77.40;2227.20;;;;;;5036195;28;20025;-80
2023/04/05 02:43:06;;;;;;;15.85;11.07;;;77.40;2227.20;;;;;;5036424;28;20033;-79
2023/04/05 02:45:32;;;;;;;15.60;11.27;;;77.70;2227.20;;;;;;5037707;28;20057;-80
2023/04/05 02:47:58;;;;;;;14.15;10.63;;;77.30;2227.20;;;;;;5039770;28;20044;-78
2023/04/05 02:50:24;;;;;;;12.85;8.45;;;77.40;2227.20;;;;;;5038087;28;20072;-80
2023/04/05 02:52:50;;;;;;;15.32;10.52;;;77.30;2227.20;;;;;;5039125;28;20028;-79
2023/04/05 02:55:16;;;;;;;14.90;10.93;;;77.40;2227.20;;;;;;5037541;28;20036;-81
2023/04/05 02:57:43;;;;;;;12.80;9.55;;;77.40;2227.20;;;;;;5036996;28;20025;-80
2023/04/05 03:00:13;;;;;;;13.90;9.93;;;77.40;2227.20;;;;;;5038520;28;20083;-80
2023/04/05 03:02:39;;;;;;;13.18;8.90;;;77.40;2227.20;;;;;;5019554;28;20030;-78
2023/04/05 03:05:06;;;;;;;12.00;8.73;;;77.40;2227.20;;;;;;5038541;28;20413;-77
2023/04/05 03:07:34;;;;;;;8.82;6.93;;;77.40;2227.20;;;;;;5039780;28;20017;-78
2023/04/05 03:10:00;;;;;;;14.45;7.78;;;77.30;2227.20;;;;;;5025568;28;20029;-81
2023/04/05 03:12:27;;;;;;;9.30;7.55;;;77.30;2227.20;;;;;;5041405;28;20021;-77
2023/04/05 03:14:53;;;;;;;12.75;9.07;;;77.30;2227.20;;;;;;5041472;28;20120;-77
2023/04/05 03:17:18;;;;;;;10.57;7.07;;;77.40;2227.20;;;;;;5042394;28;20060;-78
2023/04/05 03:19:44;;;;;;;10.95;8.48;;;77.40;2227.20;;;;;;5043938;28;20124;-77
2023/04/05 03:22:10;;;;;;;10.13;8.10;;;77.30;2227.20;;;;;;5043191;28;20033;-79
2023/04/05 03:24:36;;;;;;;11.65;6.93;;;77.40;2227.20;;;;;;5042051;28;20056;-81
2023/04/05 03:27:04;;;;;;;11.48;8.25;;;77.30;2227.20;;;;;;5041476;28;20030;-78
2023/04/05 03:29:30;;;;;;;8.95;7.25;;;77.30;2227.20;;;;;;5041694;28;20055;-78
2023/04/05 03:31:59;;;;;;;10.48;8.07;;;77.30;2227.20;;;;;;5044868;28;20036;-76
2023/04/05 03:34:28;;;;;;;12.68;8.80;;;77.20;2227.20;;;;;;5046859;28;20025;-78
2023/04/05 03:36:57;;;;;;;12.35;7.43;;;77.20;2227.20;;;;;;5041274;28;20062;-76
2023/04/05 03:39:22;;;;;;;9.02;6.90;;;77.10;2227.20;;;;;;5029019;28;20121;-77
2023/04/05 03:41:48;;;;;;;10.20;7.25;;;77.10;2227.20;;;;;;5029437;28;20029;-76
2023/04/05 03:44:14;;;;;;;10.90;8.23;;;77.00;2227.20;;;;;;5028568;28;20045;-76
2023/04/05 03:46:41;;;;;;;9.95;7.82;;;77.00;2227.20;;;;;;5028942;28;20030;-76
2023/04/05 03:49:07;;;;;;;12.15;9.60;;;77.10;2227.20;;;;;;5029066;28;20025;-76
2023/04/05 03:51:32;;;;;;;14.43;11.15;;;77.10;2227.20;;;;;;5027973;28;20034;-76
2023/04/05 03:53:58;;;;;;;19.20;13.23;;;77.10;2227.20;;;;;;5028302;28;20036;-77
2023/04/05 03:56:24;;;;;;;16.33;11.95;;;77.30;2227.20;;;;;;5043045;28;20036;-78
2023/04/05 03:58:51;;;;;;;13.18;9.32;;;77.30;2227.20;;;;;;5026736;28;20048;-77
2023/04/05 04:01:17;;;;;;;9.98;7.63;;;77.20;2227.20;;;;;;5026601;28;20030;-77
2023/04/05 04:03:43;;;;;;;12.65;9.80;;;77.20;2227.20;;;;;;5024180;28;20034;-77
2023/04/05 04:06:09;;;;;;;12.73;9.57;;;77.30;2227.20;;;;;;5023325;28;20129;-77
2023/04/05 04:08:35;;;;;;;15.45;11.60;;;77.20;2227.20;;;;;;5023874;28;20042;-77
2023/04/05 04:11:01;;;;;;;14.80;9.43;;;77.30;2227.20;;;;;;5022059;28;20441;-80
2023/04/05 04:13:27;;;;;;;14.63;9.45;;;77.30;2227.20;;;;;;5022088;28;20026;-78
2023/04/05 04:15:52;;;;;;;10.98;8.15;;;77.30;2227.20;;;;;;5020214;28;20033;-80
2023/04/05 04:18:18;;;;;;;10.30;7.30;;;77.30;2227.20;;;;;;5022376;28;20033;-78
2023/04/05 04:20:44;;;;;;;8.88;7.00;;;77.30;2227.20;;;;;;5023010;28;20030;-77
2023/04/05 04:23:13;;;;;;;8.82;7.00;;;77.30;2227.20;;;;;;5024008;28;20184;-77
2023/04/05 04:25:39;;;;;;;13.57;10.13;;;77.30;2227.20;;;;;;5024735;28;20034;-77
2023/04/05 04:28:06;;;;;;;12.70;9.52;;;77.30;2227.20;;;;;;5025973;28;20026;-77
2023/04/05 04:30:33;;;;;;;9.70;7.57;;;77.30;2227.20;;;;;;5026325;28;20033;-77
2023/04/05 04:33:03;;;;;;;11.30;8.95;;;77.20;2227.20;;;;;;5026383;28;20060;-77
2023/04/05 04:35:33;;;;;;;10.65;8.13;;;77.30;2227.20;;;;;;5027218;28;20041;-78
2023/04/05 04:38:01;;;;;;;12.05;9.35;;;77.20;2227.20;;;;;;5023978;28;20058;-78
2023/04/05 04:40:37;;;;;;;13.63;8.88;;;77.30;2227.20;;;;;;5023254;28;20361;-78
2023/04/05 04:43:17;;;;;;;17.15;10.98;;;77.30;2227.20;;;;;;5026842;28;20022;-78
2023/04/05 04:45:46;;;;;;;13.25;9.38;;;77.30;2227.20;;;;;;5026092;28;20129;-78
2023/04/05 04:48:16;;;;;;;11.52;8.63;;;77.30;2227.20;;;;;;5042057;28;20033;-78
2023/04/05 04:50:43;;;;;;;10.27;7.40;;;77.30;2227.20;;;;;;5025243;28;20018;-78
2023/04/05 04:53:09;;;;;;;9.65;7.47;;;77.30;2227.20;;;;;;5026262;28;20054;-77
2023/04/05 04:55:35;;;;;;;10.52;7.65;;;77.30;2227.20;;;;;;5026536;28;20037;-79
2023/04/05 04:58:08;;;;;;;9.07;6.78;;;77.30;2227.20;;;;;;5027211;28;20034;-77
2023/04/05 05:00:35;;;;;;;13.48;8.63;;;77.20;2227.20;;;;;;5027207;28;20045;-78
2023/04/05 05:03:01;;;;;;;9.15;6.85;;;77.20;2227.20;;;;;;5026896;28;20057;-78
2023/04/05 05:05:27;;;;;;;9.10;7.10;;;77.10;2227.20;;;;;;5027375;28;20034;-78
2023/04/05 05:07:53;;;;;;;11.75;8.80;;;77.20;2227.20;;;;;;5026406;28;20022;-78
2023/04/05 05:10:19;;;;;;;10.43;8.05;;;77.30;2227.20;;;;;;5025391;28;20029;-79
2023/04/05 05:12:47;;;;;;;11.40;7.82;;;77.30;2227.20;;;;;;5024812;28;20477;-78
2023/04/05 05:15:13;;;;;;;10.77;8.65;;;77.30;2227.20;;;;;;5023713;28;20022;-79
2023/04/05 05:17:40;;;;;;;14.00;9.63;;;77.20;2227.20;;;;;;5024748;28;20045;-79
2023/04/05 05:20:09;;;;;;;16.27;10.40;;;77.40;2227.20;;;;;;5025034;28;20029;-78
2023/04/05 05:22:36;;;;;;;18.10;11.10;;;77.40;2227.20;;;;;;5024823;28;20489;-78
2023/04/05 05:25:06;;;;;;;21.65;12.65;;;77.40;2227.20;;;;;;5023759;28;20034;-78
2023/04/05 05:27:34;;;;;;;18.73;12.63;;;77.40;2227.20;;;;;;5025012;28;20085;-80
2023/04/05 05:30:00;;;;;;;18.42;11.57;;;77.30;2227.20;;;;;;5025809;28;20030;-80
2023/04/05 05:32:26;;;;;;;22.83;15.18;;;77.40;2227.20;;;;;;5025262;28;20565;-78
2023/04/05 05:34:52;;;;;;;29.67;17.08;;;77.40;2227.20;;;;;;5023915;28;20097;-79
2023/04/05 05:37:18;;;;;;;21.52;12.68;;;77.40;2227.20;;;;;;5023352;28;20048;-78
2023/04/05 05:39:44;;;;;;;21.88;13.52;;;77.40;2227.20;;;;;;5019671;28;20026;-77
2023/04/05 05:42:10;;;;;;;22.67;16.65;;;77.50;2227.20;;;;;;5018874;28;20029;-78
2023/04/05 05:44:36;;;;;;;26.92;16.77;;;77.50;2227.20;;;;;;5019314;28;20033;-78
2023/04/05 05:47:02;;;;;;;20.15;13.85;;;77.50;2227.20;;;;;;5018439;28;20029;-78
2023/04/05 05:49:28;;;;;;;26.10;18.88;;;77.50;2227.20;;;;;;5017720;28;20359;-79
2023/04/05 05:51:55;;;;;;;17.48;13.02;;;77.50;2227.20;;;;;;5018427;28;20102;-78
2023/04/05 05:54:21;;;;;;;21.05;16.15;;;77.60;2227.20;;;;;;5018181;28;20122;-79
2023/04/05 05:56:47;;;;;;;18.00;14.73;;;77.60;2227.20;;;;;;5016641;28;20049;-79
2023/04/05 05:59:13;;;;;;;15.20;11.00;;;77.60;2227.20;;;;;;5019022;28;20097;-79
2023/04/05 06:01:41;;;;;;;15.35;9.68;;;77.70;2227.20;;;;;;5020028;28;20474;-78
2023/04/05 06:04:08;;;;;;;17.50;12.55;;;102.40;2227.20;;;;;;5019268;28;20034;-79
2023/04/05 06:06:34;;;;;;;14.43;9.70;;;102.50;2227.20;;;;;;5018120;28;20045;-81
2023/04/05 06:09:00;;;;;;;14.95;10.75;;;102.50;2227.20;;;;;;5018047;28;20025;-83
2023/04/05 06:11:26;;;;;;;9.77;7.68;;;102.60;2227.20;;;;;;5017833;28;20029;-84
2023/04/05 06:13:53;;;;;;;8.95;6.85;;;102.50;2227.20;;;;;;5018114;28;20450;-81
2023/04/05 06:16:20;;;;;;;13.50;9.43;;;102.50;2227.20;;;;;;5017842;28;20022;-80
2023/04/05 06:18:46;;;;;;;12.00;9.15;;;102.50;2227.20;;;;;;5017532;28;20120;-81
2023/04/05 06:21:13;;;;;;;12.38;9.70;;;102.50;2227.20;;;;;;5019025;28;20033;-81
2023/04/05 06:23:41;;;;;;;13.10;10.18;;;102.60;2227.20;;;;;;5018529;28;20030;-78
2023/04/05 06:26:23;;;;;;;13.60;10.23;;;102.60;2227.20;;;;;;5016305;28;20389;-80
2023/04/05 06:28:49;;;;;;;10.55;8.43;;;102.60;2227.20;;;;;;5011856;28;20026;-80
2023/04/05 06:31:16;;;;;;;11.60;9.23;;;102.60;2227.20;;;;;;5012872;28;20018;-81
2023/04/05 06:33:42;;;;;;;20.38;14.60;;;102.60;2227.20;;;;;;5012973;28;20022;-81
2023/04/05 06:36:08;;;;;;;19.77;13.55;;;102.60;2227.20;;;;;;5013291;28;20112;-78
2023/04/05 06:38:35;;;;;;;21.38;15.48;;;102.70;2227.20;;;;;;5012346;28;20111;-80
2023/04/05 06:41:01;;;;;;;17.02;13.15;;;102.70;2227.20;;;;;;5014577;28;20029;-80
2023/04/05 06:43:27;;;;;;;11.80;9.68;;;102.70;2227.20;;;;;;5012918;28;20113;-79
2023/04/05 06:45:57;;;;;;;10.15;8.32;;;102.70;2227.20;;;;;;5012559;28;20471;-78
2023/04/05 06:48:23;;;;;;;13.13;9.23;;;102.80;2227.20;;;;;;5013020;28;20030;-79
2023/04/05 06:50:59;;;;;;;12.75;9.43;;;102.80;2227.20;;;;;;5012979;28;20454;-83
2023/04/05 06:53:26;;;;;;;14.43;11.98;;;102.80;2227.20;;;;;;5013247;28;20465;-81
2023/04/05 06:55:54;;;;;;;17.30;12.13;;;102.90;2227.20;;;;;;5013050;28;20468;-82
2023/04/05 06:58:20;;;;;;;14.68;10.27;;;102.90;2227.20;;;;;;5012869;28;20030;-81
2023/04/05 07:00:46;;;;;;;17.50;10.02;;;103.00;2227.20;;;;;;5012577;28;20026;-81
2023/04/05 07:03:12;;;;;;;16.35;12.15;;;103.00;2227.20;;;;;;5012914;28;20030;-80
2023/04/05 07:05:37;;;;;;;13.30;9.77;;;103.10;2227.20;;;;;;5012704;28;20041;-80
2023/04/05 07:08:03;;;;;;;16.10;11.50;;;103.10;2227.20;;;;;;5012718;28;20276;-81
2023/04/05 07:10:29;;;;;;;16.30;11.98;;;103.20;2227.20;;;;;;5012957;28;20497;-81
2023/04/05 07:12:55;;;;;;;13.15;9.05;;;103.20;2227.20;;;;;;5012324;28;20030;-81
2023/04/05 07:15:21;;;;;;;10.38;8.43;;;103.20;2227.20;;;;;;5029389;28;20037;-79
2023/04/05 07:17:46;;;;;;;13.80;10.40;;;103.30;2227.20;;;;;;5012759;28;20462;-80
2023/04/05 07:20:13;;;;;;;13.30;9.57;;;128.10;2252.80;;;;;;5012625;28;20030;-80
2023/04/05 07:22:38;;;;;;;12.50;8.93;;;128.00;2252.80;;;;;;5012826;28;20116;-78
2023/04/05 07:25:07;;;;;;;15.30;10.73;;;128.00;2252.80;;;;;;5012736;28;20540;-80
2023/04/05 07:27:33;;;;;;;15.45;11.20;;;128.10;2252.80;;;;;;5014541;28;20038;-80
2023/04/05 07:29:59;;;;;;;20.50;15.27;;;128.10;2252.80;;;;;;5032124;28;20030;-80
2023/04/05 07:32:25;;;;;;;18.85;14.75;;;128.10;2252.80;;;;;;5012685;28;20484;-80
2023/04/05 07:34:51;;;;;;;16.98;9.82;;;128.10;2252.80;;;;;;5011940;28;20034;-80
2023/04/05 07:37:17;;;;;;;9.75;7.80;;;128.10;2252.80;;;;;;5012498;28;20049;-81
2023/04/05 07:39:43;;;;;;;11.43;8.55;;;128.00;2252.80;;;;;;5012587;28;20022;-81
2023/04/05 07:42:09;;;;;;;11.77;7.47;;;128.00;2252.80;;;;;;5012119;28;20462;-80
2023/04/05 07:44:35;;;;;;;10.85;8.13;;;128.00;2252.80;;;;;;5012539;28;20030;-80
2023/04/05 07:47:02;;;;;;;11.90;7.78;;;128.10;2252.80;;;;;;5012445;28;20060;-81
2023/04/05 07:49:29;;;;;;;10.07;7.30;;;128.00;2252.80;;;;;;5011303;28;20026;-80
2023/04/05 07:51:56;;;;;;;10.80;8.02;;;103.30;2227.20;;;;;;5015407;28;20036;-81
2023/04/05 07:54:22;;;;;;;11.02;7.40;;;103.30;2227.20;;;;;;5015081;28;20386;-81
2023/04/05 07:56:49;;;;;;;25.60;16.48;;;103.30;2227.20;;;;;;5015655;28;20099;-79
2023/04/05 07:59:15;;;;;;;19.05;14.77;;;103.20;2227.20;;;;;;5010746;28;20037;-81
2023/04/05 08:01:41;;;;;;;13.82;10.27;;;103.30;2227.20;;;;;;5012222;28;20471;-79
2023/04/05 08:04:07;;;;;;;9.32;7.20;;;103.30;2227.20;;;;;;5011774;28;20035;-78
2023/04/05 08:06:32;;;;;;;14.52;10.77;;;103.30;2227.20;;;;;;5012355;28;20546;-81
2023/04/05 08:08:58;;;;;;;19.10;12.10;;;103.30;2227.20;;;;;;5012687;28;20149;-82
2023/04/05 08:11:25;;;;;;;17.13;11.75;;;103.20;2227.20;;;;;;5012338;28;20026;-82
2023/04/05 08:13:53;;;;;;;39.38;20.98;;;103.30;2227.20;;;;;;5012344;28;20117;-82
2023/04/05 08:16:19;;;;;;;26.75;17.25;;;103.30;2227.20;;;;;;5012063;28;20022;-81
2023/04/05 08:18:45;;;;;;;17.52;12.07;;;103.10;2227.20;;;;;;5012242;28;20121;-82
2023/04/05 08:21:10;;;;;;;11.30;8.63;;;103.20;2227.20;;;;;;5012380;28;20454;-81
2023/04/05 08:23:36;;;;;;;15.68;10.30;;;103.10;2227.20;;;;;;5011781;28;20022;-80
2023/04/05 08:26:02;;;;;;;23.90;14.70;;;103.10;2227.20;;;;;;5012234;28;20073;-78
2023/04/05 08:28:28;;;;;;;20.20;13.32;;;103.10;2227.20;;;;;;5011982;28;20037;-79
2023/04/05 08:30:56;;;;;;;39.60;24.77;;;103.20;2227.20;;;;;;5011829;28;20038;-81
2023/04/05 08:33:22;;;;;;;26.95;18.10;;;103.20;2227.20;;;;;;5012056;28;20050;-80
2023/04/05 08:35:48;;;;;;;25.05;15.82;;;103.20;2227.20;;;;;;5011971;28;20037;-81
2023/04/05 08:38:14;;;;;;;28.20;17.05;;;103.20;2227.20;;;;;;5011312;28;20398;-81
2023/04/05 08:40:45;;;;;;;20.75;14.63;;;103.30;2227.20;;;;;;5011960;28;20026;-80
2023/04/05 08:43:17;;;;;;;17.90;12.57;;;103.30;2227.20;;;;;;5011829;28;20109;-81
2023/04/05 08:45:50;;;;;;;20.38;13.65;;;103.30;2227.20;;;;;;5011560;28;20125;-81
2023/04/05 08:48:16;;;;;;;20.20;14.35;;;103.30;2227.20;;;;;;5011635;28;20034;-81
2023/04/05 08:50:48;;;;;;;26.33;17.60;;;103.30;2227.20;;;;;;5011243;28;20031;-80
2023/04/05 08:53:14;;;;;;;31.00;20.98;;;103.20;2227.20;;;;;;5011875;28;20057;-80
2023/04/05 08:55:40;;;;;;;22.15;13.90;;;103.20;2227.20;;;;;;5011326;28;20451;-80
2023/04/05 08:58:12;;;;;;;20.25;14.18;;;103.10;2227.20;;;;;;5011345;28;20101;-81
2023/04/05 09:00:40;;;;;;;16.58;10.90;;;103.20;2227.20;;;;;;5011888;28;20378;-81
2023/04/05 09:03:11;;;;;;;12.95;9.27;;;103.20;2227.20;;;;;;5010851;28;20106;-83
2023/04/05 09:05:38;;;;;;;21.05;15.32;;;103.20;2227.20;;;;;;5011185;28;20037;-83
2023/04/05 09:08:05;;;;;;;23.73;16.45;;;103.30;2227.20;;;;;;4999977;28;20022;-81
2023/04/05 09:10:31;;;;;;;16.60;10.75;;;128.10;2252.80;;;;;;4994937;28;20033;-81
2023/04/05 09:12:58;;;;;;;13.73;10.57;;;128.10;2252.80;;;;;;5006000;28;20488;-82
2023/04/05 09:15:25;;;;;;;17.00;12.52;;;128.20;2252.80;;;;;;5013994;28;20181;-80
2023/04/05 09:17:53;;;;;;;18.45;13.88;;;128.30;2252.80;;;;;;5014093;28;20076;-83
2023/04/05 09:20:19;;;;;;;16.50;11.30;;;128.40;2252.80;;;;;;5006767;28;20026;-83
2023/04/05 09:22:46;;;;;;;23.55;16.38;;;128.50;2252.80;;;;;;5013955;28;20030;-83
2023/04/05 09:25:33;;;;;;;13.68;10.82;;;128.40;2252.80;;;;;;4997626;28;20371;-81
2023/04/05 09:28:01;;;;;;;17.83;12.32;;;128.50;2252.80;;;;;;5011729;28;20109;-81
2023/04/05 09:30:29;;;;;;;15.32;11.88;;;128.40;2252.80;;;;;;5014393;28;20026;-81
2023/04/05 09:32:56;;;;;;;27.85;21.25;;;128.50;2252.80;;;;;;4998425;28;20030;-83
2023/04/05 09:35:29;;;;;;;33.22;23.42;;;128.60;2252.80;;;;;;5011742;28;20385;-84
2023/04/05 09:37:57;;;;;;;33.65;23.85;;;128.70;2252.80;;;;;;5020254;28;20406;-83
2023/04/05 09:40:23;;;;;;;30.58;22.63;;;128.60;2252.80;;;;;;5015075;28;20033;-83
2023/04/05 09:42:49;;;;;;;25.98;19.85;;;128.50;2252.80;;;;;;5027183;28;20030;-83
2023/04/05 09:45:17;;;;;;;33.50;25.00;;;128.70;2252.80;;;;;;5031001;28;20095;-83
2023/04/05 09:47:53;;;;;;;30.20;23.48;;;128.90;2252.80;;;;;;5030224;28;20083;-81
2023/04/05 09:50:19;;;;;;;30.67;23.48;;;128.90;2252.80;;;;;;5033170;28;20021;-80
2023/04/05 09:52:47;;;;;;;24.88;17.92;;;153.60;2252.80;;;;;;5032725;28;20039;-82
2023/04/05 09:55:13;;;;;;;22.33;17.02;;;153.80;2252.80;;;;;;5032513;28;20036;-83
2023/04/05 09:57:40;;;;;;;43.88;29.67;;;153.80;2252.80;;;;;;5013238;28;20062;-81
2023/04/05 10:00:17;;;;;;;44.65;29.30;;;153.80;2252.80;;;;;;5020661;28;20021;-84
2023/04/05 10:02:42;;;;;;;22.30;16.67;;;154.00;2252.80;;;;;;5020379;28;20026;-84
2023/04/05 10:05:12;;;;;;;18.35;13.73;;;154.10;2252.80;;;;;;5029016;28;20036;-85
2023/04/05 10:07:39;;;;;;;32.65;24.15;;;153.90;2252.80;;;;;;5009725;28;20390;-82
2023/04/05 10:10:05;;;;;;;25.05;20.75;;;154.10;2252.80;;;;;;5008243;28;20091;-84
2023/04/05 10:12:32;;;;;;;28.27;19.77;;;154.30;2252.80;;;;;;5021965;28;20112;-84
2023/04/05 10:14:58;;;;;;;42.20;32.40;;;;;;;;;;5011883;28;20543;-83
2023/04/05 10:17:31;;;;;;;22.20;17.35;;;154.50;2252.80;;;;;;5029276;28;20088;-83
2023/04/05 10:20:15;;;;;;;42.70;28.83;;;179.30;2252.80;;;;;;5019333;28;20053;-82
2023/04/05 10:23:10;;;;;;;25.90;19.52;;;179.40;2252.80;;;;;;5020014;28;20030;-85
2023/04/05 10:26:20;;;;;;;17.33;13.63;;;179.60;2252.80;;;;;;5000026;28;20508;-84
2023/04/05 10:28:51;;;;;;;16.42;12.88;;;179.40;2252.80;;;;;;5025144;28;20125;-83
2023/04/05 10:31:23;;;;;;;23.92;15.32;;;179.30;2252.80;;;;;;5016225;28;20033;-82
2023/04/05 10:33:55;;;;;;;27.03;17.13;;;179.60;2252.80;;;;;;5027316;28;20079;-83
2023/04/05 10:36:42;;;;;;;24.17;17.57;;;179.80;2252.80;;;;;;5012446;28;20097;-85
2023/04/05 10:39:29;;;;;;;21.90;17.08;;;180.10;2252.80;;;;;;5027601;28;20441;-85
2023/04/05 10:42:19;;;;;;;19.95;15.55;;;204.90;2252.80;;;;;;5020122;28;20532;-82
2023/04/05 10:44:50;;;;;;;24.95;19.27;;;180.10;2252.80;;;;;;5047475;28;20064;-84
2023/04/05 10:47:18;;;;;;;26.45;18.67;;;180.10;2252.80;;;;;;5040271;28;20037;-84
2023/04/05 10:49:51;;;;;;;25.88;20.27;;;180.10;2252.80;;;;;;5032054;28;20025;-84
2023/04/05 10:52:17;;;;;;;20.60;14.23;;;180.00;2252.80;;;;;;5038045;28;20033;-84
2023/04/05 10:54:43;;;;;;;29.20;19.73;;;179.90;2252.80;;;;;;5032441;28;20137;-86
2023/04/05 10:57:10;;;;;;;25.67;17.27;;;179.90;2252.80;;;;;;5032576;28;20025;-85
2023/04/05 10:59:44;;;;;;;12.95;10.52;;;204.80;2252.80;;;;;;5031781;28;20028;-85
2023/04/05 11:02:11;;;;;;;11.63;8.13;;;179.70;2252.80;;;;;;5031272;28;20193;-85
2023/04/05 11:04:38;;;;;;;21.58;15.05;;;179.60;2252.80;;;;;;5031962;28;20112;-85
2023/04/05 11:07:18;;;;;;;15.95;11.20;;;179.40;2252.80;;;;;;5032758;28;20598;-86
2023/04/05 11:10:04;;;;;;;12.48;9.10;;;179.50;2252.80;;;;;;5017287;28;20053;-84
2023/04/05 11:12:56;;;;;;;25.45;14.60;;;179.40;2252.80;;;;;;5032191;28;20021;-89
2023/04/05 11:15:27;;;;;;;15.75;12.02;;;179.50;2252.80;;;;;;5028396;28;20048;-87
2023/04/05 11:18:15;;;;;;;12.93;9.15;;;179.60;2252.80;;;;;;5047288;28;20469;-88
2023/04/05 11:20:50;;;;;;;24.35;14.65;;;179.60;2252.80;;;;;;5039839;28;20500;-87
2023/04/05 11:23:21;;;;;;;24.23;14.85;;;179.60;2252.80;;;;;;5031865;28;20026;-89
2023/04/05 11:26:02;;;;;;;27.23;18.45;;;179.50;2252.80;;;;;;5034257;28;20025;-87
2023/04/05 11:28:43;;;;;;;16.73;11.35;;;179.60;2252.80;;;;;;5035907;28;20029;-87
2023/04/05 11:31:17;;;;;;;20.40;14.88;;;179.80;2252.80;;;;;;5035924;28;20117;-86
2023/04/05 11:33:43;;;;;;;20.17;14.48;;;179.80;2252.80;;;;;;5020870;28;20034;-90
2023/04/05 11:36:09;;;;;;;24.25;15.27;;;180.00;2252.80;;;;;;5036066;28;20420;-87
2023/04/05 11:38:36;;;;;;;16.50;12.55;;;180.00;2252.80;;;;;;5024349;28;20054;-87
2023/04/05 11:41:12;;;;;;;13.00;9.63;;;179.90;2252.80;;;;;;5031317;28;20072;-86
2023/04/05 11:43:38;;;;;;;16.27;12.98;;;180.00;2252.80;;;;;;5015744;28;20076;-86
2023/04/05 11:46:04;;;;;;;21.17;14.18;;;204.80;2252.80;;;;;;5016135;28;20030;-86
2023/04/05 11:48:30;;;;;;;23.75;14.82;;;205.10;2252.80;;;;;;5026599;28;20030;-87
2023/04/05 11:50:57;;;;;;;15.80;10.90;;;205.10;2252.80;;;;;;5033598;28;20032;-86
2023/04/05 11:53:23;;;;;;;25.20;15.90;;;205.10;2252.80;;;;;;5033739;28;20021;-85
2023/04/05 11:55:50;;;;;;;29.35;20.25;;;205.20;2252.80;;;;;;5020379;28;20048;-83
2023/04/05 11:58:23;;;;;;;27.15;18.45;;;205.20;2252.80;;;;;;5034768;28;20470;-83
2023/04/05 12:01:01;;;;;;;41.00;26.77;;;205.20;2252.80;;;;;;5034054;28;20025;-80
2023/04/05 12:03:27;;;;;;;73.85;45.45;;;205.10;2252.80;;;;;;5033830;28;20460;-85
2023/04/05 12:05:55;;;;;;;59.65;37.28;;;205.10;2252.80;;;;;;5028170;28;20119;-82
2023/04/05 12:08:22;;;;;;;52.97;32.72;;;205.10;2252.80;;;;;;5024832;28;20461;-82
2023/04/05 12:11:00;;;;;;;47.05;29.35;;;204.90;2252.80;;;;;;5021658;28;20076;-84
2023/04/05 12:13:31;;;;;;;32.53;24.60;;;204.90;2252.80;;;;;;5031455;28;20116;-82
2023/04/05 12:15:59;;;;;;;28.48;19.75;;;204.80;2252.80;;;;;;5018742;28;20484;-82